Airfield :
LOGIN :

Register | Disclaimer

   EN    FR    IT 

 










Legend :    VFR   Marginal VFR   IFR   Intensive IFR   Very Intensive IFR
Visi :
Ceiling :
>= 8 km
>= 3000ft
5 to 8 km
1000 to 3000 ft
1500m to 5 km
500 to 1000 ft
800 to 1500m
200 to 500 ft
< 800m
< 200 ft
Symbols :   Thunderstorms  Fog  Heavy snow  Heavy precipitations  Wind > 20 kt
SIGMETs :     Misc.  Thunderstorms  Icing  Turbulence  Mountain Waves  Volcanic Ashes






- Airport Elevation : 137 ft


LIPS - Istrana AFB Treviso

CURRENT METAR :
  • 151955Z /////KT 9999 SCT005 BKN020 11/10 Q1004 RMK OVC VIS MIN 9999 WIND THR26 22007KT WIND THR08 25005KT WHT

EXPIRED METARs :
  • 151855Z /////KT 6000 -RA FEW025TCU BKN030 12/11 Q1003 RMK OVC VIS MIN 6000 WIND THR26 12004KT WIND THR08 16004KT WHT
  • 151755Z /////KT 9999 -RA FEW025 BKN050 13/12 Q1003

TAF TAF LIPS
Valid from the 15 at 18:00 until the 16 at 03:00 UTC


151700Z 1518/1603 12008KT 6000 RA BKN020 BKN060
BECMG 1520/1522 24015KT 8000 NSW SCT025 BKN070



MET'MAP, your aeronautical weather chart ! - Copyright ORBIFLY December 2007 - Disclaimer

ORBIFLY MET'MAP TEAM :

Programming & Development : Alexandra Zaïnal
Concept & Development : Baudouin d'Aumeries
Co-Development & Prog : Marc-Olivier Méhu
Technical & hardware support : Manuel Goepfert

Contact : metmap@orbifly.com




SOURCES & CREDITS :

   NOAA